createdAt,value
2023-03-16T00:00:48.246Z,4.20
2023-03-16T00:01:48.289Z,3.70
2023-03-16T00:02:48.258Z,4.60
2023-03-16T00:03:48.323Z,4.20
2023-03-16T00:04:48.228Z,3.90
2023-03-16T00:05:48.194Z,4.30
2023-03-16T00:06:48.192Z,4.50
2023-03-16T00:07:48.175Z,4.40
2023-03-16T00:08:48.193Z,4.70
2023-03-16T00:09:48.154Z,4.40
2023-03-16T00:10:48.154Z,4.90
2023-03-16T00:11:48.128Z,4.30
2023-03-16T00:12:48.116Z,4.60
2023-03-16T00:13:48.116Z,4.00
2023-03-16T00:14:48.099Z,4.30
2023-03-16T00:15:48.157Z,4.00
2023-03-16T00:16:48.145Z,3.90
2023-03-16T00:17:48.080Z,4.10
2023-03-16T00:18:48.156Z,3.90
2023-03-16T00:19:48.059Z,4.00
2023-03-16T00:20:48.028Z,3.70
2023-03-16T00:21:48.032Z,3.90
2023-03-16T00:22:48.016Z,3.10
2023-03-16T00:23:48.024Z,3.80
2023-03-16T00:24:48.009Z,3.30
2023-03-16T00:25:47.999Z,3.40
2023-03-16T00:26:48.044Z,4.10
2023-03-16T00:27:47.956Z,3.70
2023-03-16T00:28:47.947Z,3.70
2023-03-16T00:29:47.956Z,3.90
2023-03-16T00:30:47.912Z,3.50
2023-03-16T00:31:47.930Z,4.00
2023-03-16T00:32:48.000Z,3.70
2023-03-16T00:33:47.902Z,3.70
2023-03-16T00:34:47.883Z,3.30
2023-03-16T00:35:47.906Z,3.30
2023-03-16T00:36:47.890Z,3.40
2023-03-16T00:37:47.871Z,3.80
2023-03-16T00:38:47.854Z,3.40
2023-03-16T00:39:47.824Z,3.40
2023-03-16T00:40:47.810Z,3.50
2023-03-16T00:41:47.872Z,3.50
2023-03-16T00:42:47.801Z,3.20
2023-03-16T00:43:47.810Z,3.70
2023-03-16T00:44:47.772Z,3.40
2023-03-16T00:45:47.804Z,3.10
2023-03-16T00:46:47.751Z,3.20
2023-03-16T00:47:47.750Z,3.50
2023-03-16T00:48:47.737Z,3.50
2023-03-16T00:49:47.723Z,3.30
2023-03-16T00:50:47.713Z,3.40
2023-03-16T00:51:47.749Z,3.50
2023-03-16T00:52:47.681Z,3.70
2023-03-16T00:53:47.724Z,3.30
2023-03-16T00:54:47.735Z,3.30
2023-03-16T00:55:47.661Z,3.20
2023-03-16T00:56:47.710Z,3.30
2023-03-16T00:57:47.665Z,3.60
2023-03-16T00:58:47.629Z,3.60
2023-03-16T00:59:47.632Z,3.60
2023-03-16T01:00:47.672Z,3.50
2023-03-16T01:01:47.611Z,3.30
2023-03-16T01:02:47.624Z,3.50
2023-03-16T01:03:47.577Z,3.30
2023-03-16T01:04:47.561Z,3.60
2023-03-16T01:05:47.545Z,3.80
2023-03-16T01:06:47.576Z,3.60
2023-03-16T01:07:47.521Z,3.60
2023-03-16T01:08:47.529Z,3.30
2023-03-16T01:09:47.501Z,4.10
2023-03-16T01:10:47.500Z,3.20
2023-03-16T01:11:47.482Z,3.70
2023-03-16T01:12:47.463Z,3.50
2023-03-16T01:13:47.479Z,4.00
2023-03-16T01:14:47.466Z,4.00
2023-03-16T01:15:47.443Z,3.80
2023-03-16T01:16:47.509Z,3.80
2023-03-16T01:17:47.422Z,3.80
2023-03-16T01:18:47.410Z,3.60
2023-03-16T01:19:47.433Z,3.80
2023-03-16T01:20:47.381Z,3.90
2023-03-16T01:21:47.377Z,3.90
2023-03-16T01:22:47.386Z,4.00
2023-03-16T01:23:47.365Z,4.20
2023-03-16T01:24:47.345Z,3.70
2023-03-16T01:25:47.335Z,3.90
2023-03-16T01:26:47.320Z,3.90
2023-03-16T01:27:47.313Z,4.00
2023-03-16T01:28:47.316Z,3.60
2023-03-16T01:29:47.302Z,4.00
2023-03-16T01:30:47.310Z,4.20
2023-03-16T01:31:47.265Z,3.90
2023-03-16T01:32:47.308Z,4.00
2023-03-16T01:33:47.255Z,3.60
2023-03-16T01:34:47.234Z,4.00
2023-03-16T01:35:47.275Z,4.20
2023-03-16T01:36:47.212Z,4.10
2023-03-16T01:37:47.212Z,4.10
2023-03-16T01:38:47.218Z,4.20
2023-03-16T01:39:47.196Z,3.60
2023-03-16T01:40:47.171Z,3.80
2023-03-16T01:41:47.165Z,4.00
2023-03-16T01:42:47.153Z,3.70
2023-03-16T01:43:47.154Z,4.20
2023-03-16T01:44:47.135Z,4.00
2023-03-16T01:45:47.136Z,3.70
2023-03-16T01:46:47.124Z,3.70
2023-03-16T01:47:47.103Z,3.60
2023-03-16T01:48:47.097Z,4.00
2023-03-16T01:49:47.078Z,3.70
2023-03-16T01:50:47.076Z,3.80
2023-03-16T01:51:47.068Z,3.80
2023-03-16T01:52:47.055Z,4.10
2023-03-16T01:53:47.058Z,3.50
2023-03-16T01:54:47.026Z,4.20
2023-03-16T01:55:47.014Z,3.70
2023-03-16T01:56:47.006Z,3.90
2023-03-16T01:57:47.020Z,3.60
2023-03-16T01:58:47.001Z,3.50
2023-03-16T01:59:46.984Z,3.90
2023-03-16T02:00:46.955Z,3.40
2023-03-16T02:01:47.012Z,4.00
2023-03-16T02:02:46.947Z,3.70
2023-03-16T02:03:46.936Z,3.70
2023-03-16T02:04:46.973Z,4.10
2023-03-16T02:05:46.925Z,3.30
2023-03-16T02:06:46.896Z,3.60
2023-03-16T02:07:46.904Z,3.70
2023-03-16T02:08:46.886Z,3.30
2023-03-16T02:09:46.866Z,3.60
2023-03-16T02:10:46.857Z,4.00
2023-03-16T02:11:46.856Z,3.20
2023-03-16T02:12:46.839Z,4.10
2023-03-16T02:13:46.864Z,3.50
2023-03-16T02:14:46.817Z,3.50
2023-03-16T02:15:46.878Z,3.50
2023-03-16T02:16:46.790Z,3.40
2023-03-16T02:17:46.790Z,3.50
2023-03-16T02:18:46.785Z,3.80
2023-03-16T02:19:46.768Z,2.90
2023-03-16T02:20:46.758Z,3.50
2023-03-16T02:21:46.749Z,3.50
2023-03-16T02:22:46.731Z,3.20
2023-03-16T02:23:46.741Z,3.30
2023-03-16T02:24:46.709Z,3.60
2023-03-16T02:25:46.718Z,3.40
2023-03-16T02:26:46.698Z,3.40
2023-03-16T02:27:46.824Z,3.30
2023-03-16T02:28:46.687Z,3.00
2023-03-16T02:29:46.679Z,2.80
2023-03-16T02:30:46.674Z,3.20
2023-03-16T02:31:46.656Z,3.20
2023-03-16T02:32:46.627Z,3.00
2023-03-16T02:33:46.629Z,2.90
2023-03-16T02:34:46.604Z,2.90
2023-03-16T02:35:46.702Z,3.30
2023-03-16T02:36:46.600Z,3.00
2023-03-16T02:37:46.598Z,3.10
2023-03-16T02:38:46.578Z,3.00
2023-03-16T02:39:46.560Z,3.20
2023-03-16T02:40:46.542Z,2.80
2023-03-16T02:41:46.543Z,2.90
2023-03-16T02:42:46.519Z,2.90
2023-03-16T02:43:46.539Z,3.40
2023-03-16T02:44:46.501Z,2.70
2023-03-16T02:45:46.619Z,3.20
2023-03-16T02:46:46.585Z,3.00
2023-03-16T02:47:46.489Z,3.20
2023-03-16T02:48:46.490Z,3.10
2023-03-16T02:49:46.450Z,3.00
2023-03-16T02:50:46.440Z,3.10
2023-03-16T02:51:46.429Z,3.30
2023-03-16T02:52:46.419Z,3.40
2023-03-16T02:53:46.420Z,3.20
2023-03-16T02:54:46.392Z,3.00
2023-03-16T02:55:46.423Z,3.30
2023-03-16T02:56:46.381Z,3.20
2023-03-16T02:57:46.372Z,2.90
2023-03-16T02:58:46.362Z,3.30
2023-03-16T02:59:46.343Z,3.10
2023-03-16T03:00:46.336Z,3.10
2023-03-16T03:01:46.330Z,3.00
2023-03-16T03:02:46.387Z,3.20
2023-03-16T03:03:46.310Z,3.00
2023-03-16T03:04:46.324Z,3.10
2023-03-16T03:05:46.279Z,3.30
2023-03-16T03:06:46.263Z,3.30
2023-03-16T03:07:46.260Z,2.80
2023-03-16T03:08:46.259Z,3.50
2023-03-16T03:09:46.240Z,3.50
2023-03-16T03:10:46.220Z,3.40
2023-03-16T03:11:46.220Z,3.40
2023-03-16T03:12:46.199Z,3.40
2023-03-16T03:13:46.210Z,3.20
2023-03-16T03:14:46.178Z,3.10
2023-03-16T03:15:46.171Z,3.30
2023-03-16T03:16:46.372Z,3.20
2023-03-16T03:17:46.163Z,3.20
2023-03-16T03:18:46.150Z,3.00
2023-03-16T03:19:46.131Z,3.20
2023-03-16T03:20:46.124Z,3.40
2023-03-16T03:21:46.115Z,3.10
2023-03-16T03:22:46.113Z,3.50
2023-03-16T03:23:46.101Z,3.20
2023-03-16T03:24:46.081Z,3.80
2023-03-16T03:25:46.071Z,3.40
2023-03-16T03:26:46.053Z,3.30
2023-03-16T03:27:46.090Z,3.60
2023-03-16T03:28:46.087Z,3.20
2023-03-16T03:29:46.027Z,3.70
2023-03-16T03:30:46.021Z,3.40
2023-03-16T03:31:46.024Z,3.50
2023-03-16T03:32:46.064Z,3.50
2023-03-16T03:33:45.993Z,3.40
2023-03-16T03:34:45.995Z,3.30
2023-03-16T03:35:46.066Z,3.60
2023-03-16T03:36:45.945Z,3.40
2023-03-16T03:37:45.944Z,3.40
2023-03-16T03:38:45.963Z,3.50
2023-03-16T03:39:45.924Z,3.90
2023-03-16T03:40:45.905Z,3.60
2023-03-16T03:41:45.902Z,3.70
2023-03-16T03:42:45.892Z,3.30
2023-03-16T03:43:45.894Z,3.20
2023-03-16T03:44:45.861Z,3.90
2023-03-16T03:45:45.882Z,3.90
2023-03-16T03:46:45.972Z,3.90
2023-03-16T03:47:45.848Z,3.80
2023-03-16T03:48:45.832Z,3.60
2023-03-16T03:49:45.818Z,3.80
2023-03-16T03:50:45.803Z,3.60
2023-03-16T03:51:45.794Z,3.70
2023-03-16T03:52:45.782Z,3.40
2023-03-16T03:53:45.787Z,3.60
2023-03-16T03:54:45.773Z,3.90
2023-03-16T03:55:45.753Z,3.70
2023-03-16T03:56:45.743Z,3.40
2023-03-16T03:57:45.723Z,3.80
2023-03-16T03:58:45.975Z,3.90
2023-03-16T03:59:45.724Z,3.50
2023-03-16T04:00:45.698Z,3.70
2023-03-16T04:01:45.966Z,4.00
2023-03-16T04:02:45.810Z,3.50
2023-03-16T04:03:45.673Z,3.70
2023-03-16T04:04:45.648Z,3.70
2023-03-16T04:05:45.642Z,4.30
2023-03-16T04:06:45.635Z,3.90
2023-03-16T04:07:45.637Z,3.70
2023-03-16T04:08:45.635Z,3.80
2023-03-16T04:09:45.608Z,4.50
2023-03-16T04:10:45.606Z,4.00
2023-03-16T04:11:45.586Z,3.60
2023-03-16T04:12:45.554Z,3.50
2023-03-16T04:13:45.573Z,4.00
2023-03-16T04:14:45.587Z,3.90
2023-03-16T04:15:45.535Z,3.80
2023-03-16T04:16:45.611Z,3.70
2023-03-16T04:17:45.524Z,3.80
2023-03-16T04:18:45.508Z,3.80
2023-03-16T04:19:45.513Z,4.30
2023-03-16T04:20:45.487Z,4.20
2023-03-16T04:21:45.484Z,3.70
2023-03-16T04:22:45.461Z,4.10
2023-03-16T04:23:45.483Z,3.80
2023-03-16T04:24:45.433Z,3.60
2023-03-16T04:25:45.451Z,3.60
2023-03-16T04:26:45.429Z,3.90
2023-03-16T04:27:45.404Z,3.80
2023-03-16T04:28:45.442Z,4.20
2023-03-16T04:29:45.395Z,4.00
2023-03-16T04:30:45.388Z,4.10
2023-03-16T04:31:45.386Z,4.00
2023-03-16T04:32:45.416Z,4.30
2023-03-16T04:33:45.375Z,4.50
2023-03-16T04:34:45.341Z,4.20
2023-03-16T04:35:45.334Z,4.00
2023-03-16T04:36:45.319Z,4.30
2023-03-16T04:37:45.306Z,4.30
2023-03-16T04:38:45.316Z,4.30
2023-03-16T04:39:45.298Z,4.60
2023-03-16T04:40:45.298Z,3.80
2023-03-16T04:41:45.276Z,4.10
2023-03-16T04:42:45.259Z,4.00
2023-03-16T04:43:45.265Z,4.50
2023-03-16T04:44:45.244Z,4.20
2023-03-16T04:45:45.374Z,4.10
2023-03-16T04:46:45.298Z,4.60
2023-03-16T04:47:45.196Z,4.80
2023-03-16T04:48:45.179Z,4.10
2023-03-16T04:49:45.193Z,4.70
2023-03-16T04:50:45.158Z,4.50
2023-03-16T04:51:45.184Z,4.50
2023-03-16T04:52:45.147Z,4.20
2023-03-16T04:53:45.168Z,4.80
2023-03-16T04:54:45.117Z,4.70
2023-03-16T04:55:45.188Z,4.30
2023-03-16T04:56:45.111Z,4.50
2023-03-16T04:57:45.097Z,4.60
2023-03-16T04:58:45.113Z,4.70
2023-03-16T04:59:45.072Z,4.30
2023-03-16T05:00:45.059Z,4.80
2023-03-16T05:01:45.091Z,4.70
2023-03-16T05:02:45.042Z,4.70
2023-03-16T05:03:45.032Z,4.40
2023-03-16T05:04:45.028Z,4.40
2023-03-16T05:05:45.069Z,4.80
2023-03-16T05:06:45.000Z,4.50
2023-03-16T05:07:45.003Z,4.70
2023-03-16T05:08:44.969Z,4.90
2023-03-16T05:09:44.970Z,4.70
2023-03-16T05:10:44.963Z,5.30
2023-03-16T05:11:44.968Z,4.90
2023-03-16T05:12:44.939Z,4.70
2023-03-16T05:13:44.969Z,4.90
2023-03-16T05:14:44.909Z,5.20
2023-03-16T05:15:44.969Z,5.30
2023-03-16T05:16:44.894Z,5.50
2023-03-16T05:17:44.890Z,5.00
2023-03-16T05:18:44.876Z,4.90
2023-03-16T05:19:44.868Z,5.20
2023-03-16T05:20:44.840Z,5.40
2023-03-16T05:21:44.849Z,5.30
2023-03-16T05:22:44.818Z,5.00
2023-03-16T05:23:44.830Z,5.30
2023-03-16T05:24:44.799Z,4.90
2023-03-16T05:25:47.106Z,5.30
2023-03-16T05:26:44.793Z,5.30
2023-03-16T05:27:44.779Z,4.60
2023-03-16T05:28:44.791Z,5.20
2023-03-16T05:29:44.759Z,5.50
2023-03-16T05:30:44.743Z,6.00
2023-03-16T05:31:44.749Z,5.70
2023-03-16T05:32:44.754Z,5.30
2023-03-16T05:33:44.762Z,5.30
2023-03-16T05:34:44.700Z,5.60
2023-03-16T05:35:44.748Z,5.50
2023-03-16T05:36:44.670Z,5.10
2023-03-16T05:37:44.682Z,5.40
2023-03-16T05:38:44.671Z,5.30
2023-03-16T05:39:44.642Z,5.30
2023-03-16T05:40:44.633Z,5.30
2023-03-16T05:41:44.623Z,5.50
2023-03-16T05:42:44.603Z,5.20
2023-03-16T05:43:44.613Z,5.20
2023-03-16T05:44:44.595Z,5.20
2023-03-16T05:45:44.580Z,5.20
2023-03-16T05:46:44.608Z,5.20
2023-03-16T05:47:44.568Z,5.30
2023-03-16T05:48:44.556Z,5.30
2023-03-16T05:49:44.545Z,5.30
2023-03-16T05:50:44.526Z,5.30
2023-03-16T05:51:44.514Z,5.20
2023-03-16T05:52:44.496Z,5.10
2023-03-16T05:53:44.546Z,5.30
2023-03-16T05:54:44.486Z,5.30
2023-03-16T05:55:44.484Z,5.10
2023-03-16T05:56:44.499Z,5.10
2023-03-16T05:57:44.536Z,5.40
2023-03-16T05:58:44.512Z,5.40
2023-03-16T05:59:44.440Z,5.10
2023-03-16T06:00:44.420Z,5.40
2023-03-16T06:01:44.450Z,4.90
2023-03-16T06:02:44.452Z,5.20
2023-03-16T06:03:44.597Z,5.10
2023-03-16T06:04:44.380Z,5.20
2023-03-16T06:05:44.388Z,5.30
2023-03-16T06:06:44.376Z,5.40
2023-03-16T06:07:44.379Z,5.30
2023-03-16T06:08:44.379Z,4.90
2023-03-16T06:09:44.346Z,5.20
2023-03-16T06:10:44.315Z,5.10
2023-03-16T06:11:44.332Z,5.40
2023-03-16T06:12:44.284Z,4.80
2023-03-16T06:13:44.318Z,5.10
2023-03-16T06:14:44.270Z,5.60
2023-03-16T06:15:44.253Z,5.30
2023-03-16T06:16:44.355Z,5.30
2023-03-16T06:17:44.243Z,5.40
2023-03-16T06:18:44.233Z,5.70
2023-03-16T06:19:44.216Z,5.20
2023-03-16T06:20:44.198Z,5.10
2023-03-16T06:21:44.221Z,5.60
2023-03-16T06:22:44.177Z,5.80
2023-03-16T06:23:44.197Z,5.30
2023-03-16T06:24:44.146Z,5.40
2023-03-16T06:25:44.147Z,5.20
2023-03-16T06:26:44.157Z,5.60
2023-03-16T06:27:44.134Z,4.80
2023-03-16T06:28:44.118Z,5.00
2023-03-16T06:29:44.105Z,5.20
2023-03-16T06:30:44.091Z,5.40
2023-03-16T06:31:44.135Z,5.40
2023-03-16T06:32:44.157Z,5.20
2023-03-16T06:33:44.049Z,5.20
2023-03-16T06:34:44.049Z,5.30
2023-03-16T06:35:44.106Z,5.40
2023-03-16T06:36:44.030Z,5.80
2023-03-16T06:37:44.011Z,5.20
2023-03-16T06:38:44.008Z,5.40
2023-03-16T06:39:43.989Z,5.30
2023-03-16T06:40:43.981Z,5.20
2023-03-16T06:41:43.982Z,5.40
2023-03-16T06:42:46.314Z,5.10
2023-03-16T06:43:43.961Z,5.30
2023-03-16T06:44:43.940Z,5.80
2023-03-16T06:45:43.990Z,5.00
2023-03-16T06:46:43.919Z,5.50
2023-03-16T06:47:43.905Z,5.10
2023-03-16T06:48:43.904Z,5.20
2023-03-16T06:49:43.883Z,5.40
2023-03-16T06:50:43.877Z,5.70
2023-03-16T06:51:43.862Z,5.70
2023-03-16T06:52:43.882Z,5.80
2023-03-16T06:53:43.852Z,5.50
2023-03-16T06:54:43.828Z,5.50
2023-03-16T06:55:43.817Z,5.60
2023-03-16T06:56:46.194Z,5.20
2023-03-16T06:57:43.794Z,4.70
2023-03-16T06:58:43.943Z,5.40
2023-03-16T06:59:43.773Z,5.60
2023-03-16T07:00:43.798Z,5.20
2023-03-16T07:01:43.751Z,6.00
2023-03-16T07:02:43.780Z,5.50
2023-03-16T07:03:43.753Z,5.80
2023-03-16T07:04:43.720Z,5.40
2023-03-16T07:05:43.702Z,5.60
2023-03-16T07:06:43.701Z,6.40
2023-03-16T07:07:43.679Z,5.70
2023-03-16T07:08:43.693Z,6.20
2023-03-16T07:09:43.713Z,7.00
2023-03-16T07:10:43.652Z,8.90
2023-03-16T07:11:43.645Z,7.10
2023-03-16T07:12:43.633Z,5.70
2023-03-16T07:13:43.631Z,5.20
2023-03-16T07:14:43.611Z,5.70
2023-03-16T07:15:43.601Z,5.70
2023-03-16T07:16:43.687Z,5.10
2023-03-16T07:17:43.571Z,5.20
2023-03-16T07:18:43.576Z,5.70
2023-03-16T07:19:43.623Z,5.90
2023-03-16T07:20:43.543Z,5.60
2023-03-16T07:21:43.527Z,5.70
2023-03-16T07:22:43.529Z,5.90
2023-03-16T07:23:43.523Z,5.50
2023-03-16T07:24:43.501Z,5.50
2023-03-16T07:25:43.491Z,5.00
2023-03-16T07:26:43.488Z,5.60
2023-03-16T07:27:43.470Z,5.30
2023-03-16T07:28:43.490Z,5.40
2023-03-16T07:29:43.448Z,5.20
2023-03-16T07:30:53.339Z,5.10
2023-03-16T07:31:44.490Z,5.00
2023-03-16T07:32:43.462Z,5.30
2023-03-16T07:33:43.404Z,4.70
2023-03-16T07:34:43.408Z,5.30
2023-03-16T07:35:43.440Z,5.50
2023-03-16T07:36:43.371Z,5.20
2023-03-16T07:37:43.373Z,5.60
2023-03-16T07:38:43.355Z,4.90
2023-03-16T07:39:43.331Z,5.30
2023-03-16T07:40:43.341Z,4.80
2023-03-16T07:41:43.325Z,5.30
2023-03-16T07:42:43.310Z,4.70
2023-03-16T07:43:43.297Z,5.30
2023-03-16T07:44:43.285Z,5.10
2023-03-16T07:45:43.302Z,5.20
2023-03-16T07:46:43.273Z,4.80
2023-03-16T07:47:43.245Z,5.00
2023-03-16T07:48:43.271Z,5.20
2023-03-16T07:49:43.223Z,5.10
2023-03-16T07:50:43.224Z,5.50
2023-03-16T07:51:43.208Z,5.30
2023-03-16T07:52:43.191Z,5.10
2023-03-16T07:53:43.291Z,5.40
2023-03-16T07:54:43.164Z,4.60
2023-03-16T07:55:43.182Z,4.80
2023-03-16T07:56:49.340Z,4.60
2023-03-16T07:57:44.133Z,5.20
2023-03-16T07:58:43.134Z,4.90
2023-03-16T07:59:43.114Z,4.40
2023-03-16T08:00:43.109Z,5.30
2023-03-16T08:01:43.107Z,4.50
2023-03-16T08:02:43.142Z,4.60
2023-03-16T08:03:43.286Z,4.60
2023-03-16T08:04:43.054Z,4.70
2023-03-16T08:05:43.049Z,4.40
2023-03-16T08:06:43.026Z,4.90
2023-03-16T08:07:43.025Z,5.00
2023-03-16T08:08:43.054Z,4.80
2023-03-16T08:09:43.007Z,4.90
2023-03-16T08:10:42.987Z,4.70
2023-03-16T08:11:42.987Z,4.80
2023-03-16T08:12:43.035Z,5.10
2023-03-16T08:13:42.978Z,4.70
2023-03-16T08:14:42.952Z,4.40
2023-03-16T08:15:42.963Z,5.10
2023-03-16T08:16:42.919Z,4.70
2023-03-16T08:17:42.931Z,4.50
2023-03-16T08:18:42.899Z,5.20
2023-03-16T08:19:42.904Z,4.60
2023-03-16T08:20:42.880Z,4.50
2023-03-16T08:22:00.446Z,4.60
2023-03-16T08:22:43.881Z,4.60
2023-03-16T08:23:42.870Z,5.20
2023-03-16T08:24:42.851Z,4.70
2023-03-16T08:25:42.851Z,5.40
2023-03-16T08:26:42.820Z,4.70
2023-03-16T08:27:43.147Z,4.80
2023-03-16T08:28:42.871Z,5.20
2023-03-16T08:29:42.789Z,4.80
2023-03-16T08:30:42.773Z,4.90
2023-03-16T08:31:42.893Z,4.50
2023-03-16T08:32:42.782Z,4.80
2023-03-16T08:33:42.772Z,4.90
2023-03-16T08:34:42.723Z,4.70
2023-03-16T08:35:42.741Z,4.50
2023-03-16T08:36:42.708Z,4.60
2023-03-16T08:37:42.701Z,4.50
2023-03-16T08:38:44.141Z,4.60
2023-03-16T08:39:42.674Z,4.30
2023-03-16T08:40:42.666Z,4.50
2023-03-16T08:41:42.667Z,4.50
2023-03-16T08:42:42.635Z,4.80
2023-03-16T08:43:42.656Z,4.60
2023-03-16T08:44:42.621Z,4.60
2023-03-16T08:45:42.607Z,4.50
2023-03-16T08:46:42.771Z,4.60
2023-03-16T08:47:42.615Z,4.40
2023-03-16T08:48:42.584Z,4.20
2023-03-16T08:49:42.567Z,5.00
2023-03-16T08:50:42.546Z,4.50
2023-03-16T08:51:44.524Z,4.70
2023-03-16T08:52:42.551Z,5.40
2023-03-16T08:53:42.538Z,4.70
2023-03-16T08:54:49.675Z,4.30
2023-03-16T08:55:43.499Z,5.60
2023-03-16T08:56:42.486Z,4.80
2023-03-16T08:57:42.476Z,5.10
2023-03-16T08:58:42.480Z,4.90
2023-03-16T08:59:42.456Z,5.30
2023-03-16T09:00:43.894Z,4.90
2023-03-16T09:01:42.466Z,4.50
2023-03-16T09:02:42.426Z,4.90
2023-03-16T09:03:42.568Z,5.10
2023-03-16T09:04:42.422Z,5.40
2023-03-16T09:05:42.422Z,5.00
2023-03-16T09:06:42.367Z,5.20
2023-03-16T09:07:42.398Z,5.00
2023-03-16T09:08:42.387Z,4.80
2023-03-16T09:09:42.349Z,5.30
2023-03-16T09:10:42.353Z,4.90
2023-03-16T09:11:42.332Z,4.80
2023-03-16T09:12:42.306Z,4.90
2023-03-16T09:13:42.320Z,5.60
2023-03-16T09:14:42.301Z,4.90
2023-03-16T09:15:42.286Z,5.00
2023-03-16T09:16:42.293Z,5.50
2023-03-16T09:17:42.286Z,5.50
2023-03-16T09:18:42.247Z,4.90
2023-03-16T09:19:51.537Z,5.20
2023-03-16T09:20:43.217Z,5.00
2023-03-16T09:21:42.209Z,5.20
2023-03-16T09:22:42.203Z,5.00
2023-03-16T09:23:42.208Z,5.30
2023-03-16T09:24:42.170Z,5.20
2023-03-16T09:25:42.179Z,5.90
2023-03-16T09:26:42.180Z,5.50
2023-03-16T09:27:42.149Z,5.50
2023-03-16T09:28:42.309Z,5.20
2023-03-16T09:29:42.119Z,5.20
2023-03-16T09:30:42.109Z,5.30
2023-03-16T09:31:42.151Z,5.30
2023-03-16T09:32:42.119Z,5.30
2023-03-16T09:33:42.130Z,5.70
2023-03-16T11:45:45.823Z,3.20
2023-03-16T11:46:45.741Z,3.40
2023-03-16T11:47:45.739Z,3.10
2023-03-16T11:48:45.726Z,3.20
2023-03-16T11:49:45.723Z,3.30
2023-03-16T11:50:45.786Z,3.60
2023-03-16T11:51:45.691Z,3.10
2023-03-16T11:52:45.681Z,3.00
2023-03-16T11:53:45.671Z,3.30
2023-03-16T11:54:45.657Z,2.60
2023-03-16T11:55:45.660Z,2.90
2023-03-16T11:56:45.630Z,2.70
2023-03-16T11:57:45.625Z,3.00
2023-03-16T11:58:45.606Z,2.80
2023-03-16T11:59:51.974Z,3.80
2023-03-16T12:00:46.586Z,4.20
2023-03-16T12:01:59.798Z,3.00
2023-03-16T12:02:46.692Z,2.70
2023-03-16T12:03:45.592Z,3.00
2023-03-16T12:04:45.540Z,2.90
2023-03-16T12:05:46.043Z,3.10
2023-03-16T12:06:45.520Z,3.10
2023-03-16T12:07:45.537Z,2.90
2023-03-16T12:08:45.499Z,2.70
2023-03-16T12:09:45.514Z,2.30
2023-03-16T12:10:45.498Z,2.50
2023-03-16T12:11:45.474Z,2.50
2023-03-16T12:12:45.447Z,2.60
2023-03-16T12:13:45.448Z,2.60
2023-03-16T12:14:45.440Z,2.70
2023-03-16T12:15:45.469Z,2.90
2023-03-16T12:16:49.624Z,2.60
2023-03-16T12:17:45.428Z,2.70
2023-03-16T12:18:45.450Z,2.40
2023-03-16T12:19:45.414Z,2.70
2023-03-16T12:20:45.362Z,2.50
2023-03-16T12:21:45.401Z,2.70
2023-03-16T12:22:45.362Z,2.30
2023-03-16T12:23:45.330Z,2.50
2023-03-16T12:24:45.334Z,2.50
2023-03-16T12:25:45.318Z,2.60
2023-03-16T12:26:45.308Z,2.50
2023-03-16T12:27:45.297Z,2.90
2023-03-16T12:28:45.316Z,2.70
2023-03-16T12:29:45.277Z,2.60
2023-03-16T12:30:45.254Z,2.50
2023-03-16T12:31:45.296Z,2.90
2023-03-16T12:32:45.294Z,3.00
2023-03-16T12:33:45.251Z,2.60
2023-03-16T12:34:45.217Z,2.50
2023-03-16T12:35:45.251Z,2.60
2023-03-16T12:36:45.194Z,2.50
2023-03-16T12:37:45.246Z,3.10
2023-03-16T12:38:45.168Z,2.80
2023-03-16T12:39:45.150Z,2.70
2023-03-16T12:40:45.163Z,2.80
2023-03-16T12:41:45.132Z,2.50
2023-03-16T12:42:45.128Z,3.00
2023-03-16T12:43:45.140Z,2.60
2023-03-16T12:44:45.132Z,2.70
2023-03-16T12:45:45.148Z,2.70
2023-03-16T12:46:47.800Z,2.40
2023-03-16T12:47:45.064Z,2.90
2023-03-16T12:48:45.072Z,2.60
2023-03-16T12:49:45.045Z,2.60
2023-03-16T12:50:45.104Z,2.70
2023-03-16T12:51:45.020Z,2.70
2023-03-16T12:52:45.048Z,2.80
2023-03-16T12:53:45.011Z,2.40
2023-03-16T12:54:45.003Z,2.70
2023-03-16T12:55:45.019Z,2.30
2023-03-16T12:56:44.997Z,2.30
2023-03-16T12:57:44.955Z,2.40
2023-03-16T12:58:44.952Z,2.40
2023-03-16T12:59:44.934Z,2.70
2023-03-16T13:00:44.960Z,2.30
2023-03-16T13:01:44.907Z,2.30
2023-03-16T13:02:44.906Z,2.30
2023-03-16T13:03:44.903Z,2.30
2023-03-16T13:04:44.980Z,2.20
2023-03-16T13:05:44.880Z,2.30
2023-03-16T13:06:44.858Z,2.60
2023-03-16T13:07:44.848Z,2.30
2023-03-16T13:08:44.931Z,2.50
2023-03-16T13:09:44.850Z,2.70
2023-03-16T13:10:44.834Z,2.40
2023-03-16T13:11:44.823Z,2.40
2023-03-16T13:12:44.804Z,2.50
2023-03-16T13:13:44.818Z,2.20
2023-03-16T13:14:44.806Z,2.30
2023-03-16T13:15:44.772Z,2.60
2023-03-16T13:16:44.868Z,2.20
2023-03-16T13:17:44.750Z,1.90
2023-03-16T13:18:44.778Z,2.10
2023-03-16T13:19:44.711Z,2.30
2023-03-16T13:20:44.737Z,2.20
2023-03-16T13:21:44.713Z,2.40
2023-03-16T13:22:44.687Z,2.10
2023-03-16T13:23:44.687Z,2.20
2023-03-16T13:24:44.659Z,2.30
2023-03-16T13:25:44.688Z,2.70
2023-03-16T13:26:44.643Z,2.70
2023-03-16T13:27:44.645Z,2.40
2023-03-16T13:28:44.642Z,2.10
2023-03-16T13:29:44.601Z,2.10
2023-03-16T13:30:44.633Z,1.80
2023-03-16T13:31:44.635Z,2.10
2023-03-16T13:32:44.604Z,2.20
2023-03-16T13:33:44.572Z,2.50
2023-03-16T13:34:44.554Z,2.60
2023-03-16T13:35:44.538Z,2.90
2023-03-16T13:36:44.530Z,2.00
2023-03-16T13:37:44.512Z,1.90
2023-03-16T13:38:44.528Z,2.50
2023-03-16T13:39:44.487Z,2.20
2023-03-16T13:40:44.483Z,2.50
2023-03-16T13:41:44.490Z,2.00
2023-03-16T13:42:44.454Z,2.10
2023-03-16T13:43:44.471Z,1.90
2023-03-16T13:44:44.458Z,2.20
2023-03-16T13:45:44.496Z,1.90
2023-03-16T13:46:44.418Z,2.00
2023-03-16T13:47:44.405Z,2.20
2023-03-16T13:48:44.408Z,2.20
2023-03-16T13:49:44.399Z,2.30
2023-03-16T13:50:44.395Z,2.10
2023-03-16T13:51:44.369Z,2.20
2023-03-16T13:52:44.516Z,2.10
2023-03-16T13:53:44.331Z,2.20
2023-03-16T13:54:44.430Z,2.40
2023-03-16T13:55:44.321Z,2.20
2023-03-16T13:56:44.311Z,2.00
2023-03-16T13:57:44.305Z,2.40
2023-03-16T13:58:44.291Z,2.10
2023-03-16T13:59:44.271Z,2.00
2023-03-16T14:00:44.342Z,2.20
2023-03-16T14:01:44.319Z,2.50
2023-03-16T14:02:44.306Z,2.40
2023-03-16T14:03:44.222Z,2.40
2023-03-16T14:04:44.213Z,2.20
2023-03-16T14:05:44.213Z,2.30
2023-03-16T14:06:44.199Z,2.20
2023-03-16T14:07:44.197Z,2.30
2023-03-16T14:08:44.172Z,2.30
2023-03-16T14:09:44.155Z,2.50
2023-03-16T14:10:44.184Z,2.20
2023-03-16T14:11:44.136Z,2.20
2023-03-16T14:12:44.127Z,2.50
2023-03-16T14:13:44.120Z,2.30
2023-03-16T14:14:44.110Z,2.20
2023-03-16T14:15:44.184Z,2.10
2023-03-16T14:16:44.164Z,2.20
2023-03-16T14:17:44.070Z,2.30
2023-03-16T14:18:44.072Z,2.30
2023-03-16T14:19:44.061Z,2.10
2023-03-16T14:20:44.064Z,2.00
2023-03-16T14:21:44.042Z,2.30
2023-03-16T14:22:44.033Z,1.90
2023-03-16T14:23:44.020Z,2.00
2023-03-16T14:24:44.004Z,2.70
2023-03-16T14:25:44.106Z,2.10
2023-03-16T14:26:43.991Z,2.50
2023-03-16T14:27:43.972Z,2.30
2023-03-16T14:28:43.966Z,2.20
2023-03-16T14:29:43.949Z,2.40
2023-03-16T14:30:44.027Z,2.30
2023-03-16T14:31:43.927Z,2.10
2023-03-16T14:32:43.967Z,2.10
2023-03-16T14:33:43.911Z,2.10
2023-03-16T14:34:43.898Z,2.20
2023-03-16T14:35:43.992Z,1.90
2023-03-16T14:36:43.880Z,2.00
2023-03-16T14:37:43.881Z,2.00
2023-03-16T14:38:43.859Z,2.50
2023-03-16T14:39:43.864Z,2.60
2023-03-16T14:40:43.859Z,2.30
2023-03-16T14:41:43.819Z,2.20
2023-03-16T14:42:43.810Z,2.00
2023-03-16T14:43:43.800Z,2.00
2023-03-16T14:44:43.813Z,2.30
2023-03-16T14:45:43.790Z,2.40
2023-03-16T14:46:43.800Z,2.50
2023-03-16T14:47:43.766Z,2.20
2023-03-16T14:48:43.737Z,2.50
2023-03-16T14:49:43.764Z,2.40
2023-03-16T14:50:43.764Z,2.20
2023-03-16T14:51:43.706Z,2.30
2023-03-16T14:52:43.705Z,2.20
2023-03-16T14:53:43.684Z,2.30
2023-03-16T14:54:43.675Z,2.50
2023-03-16T14:55:43.705Z,2.30
2023-03-16T14:56:43.648Z,2.10
2023-03-16T14:57:43.654Z,2.20
2023-03-16T14:58:43.631Z,2.40
2023-03-16T14:59:43.629Z,2.20
2023-03-16T15:00:52.823Z,2.40
2023-03-16T15:01:44.785Z,2.20
2023-03-16T15:02:43.602Z,2.00
2023-03-16T15:03:43.572Z,2.50
2023-03-16T15:04:43.567Z,2.70
2023-03-16T15:05:43.566Z,3.50
2023-03-16T15:06:43.560Z,2.80
2023-03-16T15:07:43.552Z,2.60
2023-03-16T15:08:43.552Z,2.90
2023-03-16T15:09:43.516Z,2.60
2023-03-16T15:10:43.499Z,2.50
2023-03-16T15:11:43.529Z,2.70
2023-03-16T15:12:43.470Z,2.60
2023-03-16T15:13:44.522Z,2.50
2023-03-16T15:14:43.450Z,2.90
2023-03-16T15:15:43.493Z,3.20
2023-03-16T15:16:43.442Z,2.80
2023-03-16T15:17:43.423Z,2.70
2023-03-16T15:18:43.409Z,2.70
2023-03-16T15:19:43.423Z,2.10
2023-03-16T15:20:43.432Z,2.60
2023-03-16T15:21:43.394Z,2.30
2023-03-16T15:22:43.378Z,2.60
2023-03-16T15:23:43.364Z,2.40
2023-03-16T15:24:43.347Z,2.80
2023-03-16T15:25:43.334Z,2.70
2023-03-16T15:26:43.349Z,2.60
2023-03-16T15:27:43.329Z,2.50
2023-03-16T15:28:43.296Z,2.20
2023-03-16T15:29:43.304Z,2.30